createdAt,value
2022-11-04T00:02:30.818Z,15.98
2022-11-04T00:07:49.584Z,12.65
2022-11-04T00:12:47.839Z,11.45
2022-11-04T00:17:46.096Z,17.23
2022-11-04T00:23:06.759Z,11.55
2022-11-04T00:28:23.475Z,9.30
2022-11-04T00:33:27.403Z,14.05
2022-11-04T00:38:27.114Z,11.23
2022-11-04T00:43:25.336Z,19.88
2022-11-04T00:48:23.570Z,13.40
2022-11-04T00:53:21.831Z,14.48
2022-11-04T00:58:21.372Z,11.55
2022-11-04T01:03:19.575Z,10.32
2022-11-04T01:08:17.934Z,10.30
2022-11-04T01:13:16.146Z,12.85
2022-11-04T01:18:15.771Z,11.45
2022-11-04T01:23:13.972Z,13.68
2022-11-04T01:28:12.218Z,10.45
2022-11-04T01:33:10.498Z,10.45
2022-11-04T01:38:10.454Z,12.43
2022-11-04T01:43:14.132Z,11.55
2022-11-04T01:48:16.720Z,10.57
2022-11-04T01:53:18.019Z,13.95
2022-11-04T01:58:18.357Z,9.93
2022-11-04T02:03:19.429Z,10.25
2022-11-04T02:08:19.575Z,13.88
2022-11-04T02:13:17.882Z,9.93
2022-11-04T02:18:27.140Z,9.63
2022-11-04T02:28:57.366Z,10.35
2022-11-04T02:34:02.610Z,9.77
2022-11-04T02:39:03.450Z,10.63
2022-11-04T02:44:04.438Z,14.57
2022-11-04T02:49:05.525Z,9.23
2022-11-04T02:54:06.303Z,11.95
2022-11-04T02:59:06.298Z,11.23
2022-11-04T03:04:07.771Z,10.27
2022-11-04T03:09:06.356Z,11.77
2022-11-04T03:14:06.459Z,8.95
2022-11-04T03:19:10.619Z,11.27
2022-11-04T03:24:08.848Z,8.73
2022-11-04T03:29:14.330Z,10.45
2022-11-04T03:34:14.065Z,9.85
2022-11-04T03:39:12.280Z,14.75
2022-11-04T03:44:10.589Z,9.55
2022-11-04T03:49:10.378Z,9.63
2022-11-04T03:54:10.067Z,13.35
2022-11-04T03:59:18.252Z,10.00
2022-11-04T04:04:18.163Z,10.55
2022-11-04T04:09:20.723Z,11.82
2022-11-04T04:14:35.207Z,10.45
2022-11-04T04:19:34.619Z,11.13
2022-11-04T04:24:53.987Z,11.38
2022-11-04T04:29:53.417Z,13.95
2022-11-04T04:35:11.711Z,11.30
2022-11-04T04:40:30.915Z,11.82
2022-11-04T04:45:32.938Z,12.45
2022-11-04T04:50:35.781Z,12.88
2022-11-04T04:55:40.609Z,9.73
2022-11-04T05:00:40.321Z,15.27
2022-11-04T05:05:38.602Z,17.23
2022-11-04T05:10:38.217Z,31.52
2022-11-04T05:15:36.505Z,19.88
2022-11-04T05:20:35.142Z,15.00
2022-11-04T05:25:33.416Z,16.40
2022-11-04T05:30:33.060Z,17.65
2022-11-04T05:35:31.240Z,25.00
2022-11-04T05:40:29.427Z,17.67
2022-11-04T05:45:27.688Z,21.88
2022-11-04T05:50:27.231Z,14.82
2022-11-04T05:55:25.430Z,18.42
2022-11-04T06:00:23.798Z,24.40
2022-11-04T06:05:21.997Z,17.10
2022-11-04T06:10:21.579Z,31.75
2022-11-04T06:15:19.802Z,25.13
2022-11-04T06:20:17.967Z,29.92
2022-11-04T06:25:16.655Z,24.52
2022-11-04T06:30:16.442Z,19.23
2022-11-04T06:35:14.711Z,22.73
2022-11-04T06:40:13.051Z,20.23
2022-11-04T06:45:11.931Z,17.13
2022-11-04T06:50:12.186Z,17.40
2022-11-04T06:55:11.153Z,27.05
2022-11-04T07:00:10.006Z,34.67
2022-11-04T07:05:08.842Z,28.95
2022-11-04T07:10:08.972Z,23.73
2022-11-04T07:15:07.773Z,26.27
2022-11-04T07:20:06.703Z,35.55
2022-11-04T07:25:05.317Z,33.80
2022-11-04T07:30:05.115Z,32.75
2022-11-04T07:35:03.325Z,35.55
2022-11-04T07:40:01.475Z,35.83
2022-11-04T07:44:59.593Z,41.28
2022-11-04T07:49:59.215Z,25.80
2022-11-04T07:54:57.429Z,26.15
2022-11-04T07:59:55.569Z,35.47
2022-11-04T08:04:53.728Z,26.17
2022-11-04T08:09:53.257Z,32.85
2022-11-04T08:14:51.481Z,25.73
2022-11-04T08:19:50.069Z,30.08
2022-11-04T08:24:48.454Z,58.72
2022-11-04T08:29:47.967Z,32.35
2022-11-04T08:34:46.333Z,30.83
2022-11-04T08:39:44.555Z,19.17
2022-11-04T08:44:43.001Z,36.75
2022-11-04T08:49:42.882Z,24.38
2022-11-04T08:54:41.085Z,23.50
2022-11-04T08:59:39.287Z,23.10
2022-11-04T09:04:37.423Z,29.92
2022-11-04T09:09:37.014Z,25.70
2022-11-04T09:14:35.177Z,23.13
2022-11-04T09:19:33.699Z,28.63
2022-11-04T09:24:32.108Z,29.95
2022-11-04T09:29:33.747Z,20.58
2022-11-04T09:34:32.293Z,26.77
2022-11-04T09:39:30.458Z,27.90
2022-11-04T09:44:30.008Z,26.75
2022-11-04T09:49:31.034Z,23.85
2022-11-04T09:54:34.124Z,25.30
2022-11-04T09:59:33.535Z,18.30
2022-11-04T10:04:41.886Z,24.50
2022-11-04T10:09:48.579Z,19.75
2022-11-04T10:15:04.593Z,17.70
2022-11-04T10:20:18.282Z,23.88
2022-11-04T10:25:17.756Z,19.02
2022-11-04T10:30:17.170Z,20.73
2022-11-04T10:35:20.263Z,20.00
2022-11-04T10:40:21.384Z,15.43
2022-11-04T10:45:21.504Z,18.15
2022-11-04T10:50:32.204Z,21.83
2022-11-04T10:55:34.474Z,17.23
2022-11-04T11:00:40.112Z,14.93
2022-11-04T11:05:40.072Z,14.95
2022-11-04T11:10:38.286Z,20.52
2022-11-04T11:15:38.242Z,14.75
2022-11-04T11:20:38.189Z,21.05
2022-11-04T11:25:42.609Z,15.25
2022-11-04T11:30:55.021Z,12.75
2022-11-04T11:35:54.224Z,19.52
2022-11-04T11:41:23.445Z,14.10
2022-11-04T11:46:13.780Z,23.02
2022-11-04T11:51:13.870Z,26.25
2022-11-04T11:56:19.244Z,12.55
2022-11-04T12:01:25.083Z,20.17
2022-11-04T12:06:29.626Z,16.30
2022-11-04T12:11:38.411Z,21.13
2022-11-04T12:16:41.582Z,14.27
2022-11-04T12:21:41.871Z,20.55
2022-11-04T12:26:45.327Z,16.25
2022-11-04T12:31:51.995Z,20.08
2022-11-04T12:36:58.155Z,15.82
2022-11-04T12:47:27.192Z,16.23
2022-11-04T12:52:35.993Z,20.10
2022-11-04T12:57:38.724Z,18.63
2022-11-04T13:02:40.856Z,17.83
2022-11-04T13:07:41.363Z,20.83
2022-11-04T13:12:42.767Z,16.17
2022-11-04T13:17:41.716Z,18.25
2022-11-04T13:22:40.568Z,21.15
2022-11-04T13:27:44.912Z,18.67
2022-11-04T13:32:48.724Z,21.05
2022-11-04T13:37:51.303Z,17.97
2022-11-04T13:43:24.356Z,19.38
2022-11-04T13:48:26.614Z,19.42
2022-11-04T13:53:41.315Z,19.00
2022-11-04T13:58:44.504Z,21.23
2022-11-04T14:04:02.255Z,26.67
2022-11-04T14:14:17.349Z,22.35
2022-11-04T14:19:33.863Z,17.42
2022-11-04T14:24:33.734Z,23.50
2022-11-04T14:29:32.647Z,21.08
2022-11-04T14:34:33.463Z,22.02
2022-11-04T14:39:35.671Z,16.48
2022-11-04T14:44:35.782Z,20.90
2022-11-04T14:49:41.543Z,23.80
2022-11-04T14:54:41.145Z,21.17
2022-11-04T14:59:39.414Z,20.63
2022-11-04T15:04:37.586Z,16.83
2022-11-04T15:09:40.871Z,22.02
2022-11-04T15:14:40.567Z,20.77
2022-11-04T15:19:38.887Z,26.10
2022-11-04T15:24:37.183Z,26.70
2022-11-04T15:29:35.476Z,21.95
2022-11-04T15:34:36.813Z,20.45
2022-11-04T15:39:36.114Z,24.13
2022-11-04T15:44:35.311Z,18.85
2022-11-04T15:49:35.696Z,19.25
2022-11-04T15:54:36.577Z,23.17
2022-11-04T15:59:35.943Z,17.30
2022-11-04T16:04:35.570Z,12.82
2022-11-04T16:09:45.682Z,20.80
2022-11-04T16:14:51.021Z,14.55
2022-11-04T16:19:51.540Z,18.23
2022-11-04T16:24:50.780Z,22.80
2022-11-04T16:29:56.955Z,13.73
2022-11-04T16:34:58.349Z,12.75
2022-11-04T16:39:56.618Z,25.45
2022-11-04T16:44:58.838Z,20.73
2022-11-04T16:50:00.198Z,17.48
2022-11-04T16:54:58.482Z,27.30
2022-11-04T16:59:57.404Z,27.77
2022-11-04T17:04:56.008Z,28.70
2022-11-04T17:09:55.640Z,24.52
2022-11-04T17:14:54.450Z,22.33
2022-11-04T17:19:52.678Z,23.45
2022-11-04T17:24:50.819Z,23.60
2022-11-04T17:29:50.425Z,20.13
2022-11-04T17:34:48.676Z,25.48
2022-11-04T17:39:46.870Z,22.95
2022-11-04T17:44:45.103Z,24.33
2022-11-04T17:49:44.770Z,20.02
2022-11-04T17:54:43.018Z,23.90
2022-11-04T17:59:41.179Z,26.83
2022-11-04T18:04:39.570Z,29.58
2022-11-04T18:09:39.534Z,25.75
2022-11-04T18:14:37.750Z,21.95
2022-11-04T18:19:36.085Z,25.92
2022-11-04T18:24:34.349Z,30.77
2022-11-04T18:29:34.151Z,22.45
2022-11-04T18:34:32.324Z,23.88
2022-11-04T18:39:30.639Z,23.35
2022-11-04T18:44:28.825Z,21.60
2022-11-04T18:49:28.665Z,28.42
2022-11-04T18:54:26.956Z,21.17
2022-11-04T18:59:25.241Z,24.45
2022-11-04T19:04:23.442Z,21.88
2022-11-04T19:14:41.308Z,26.38
2022-11-04T19:19:41.146Z,20.52
2022-11-04T19:24:41.100Z,25.95
2022-11-04T19:29:39.631Z,22.25
2022-11-04T19:34:38.713Z,20.23
2022-11-04T19:39:36.890Z,25.98
2022-11-04T19:44:36.534Z,22.55
2022-11-04T19:49:34.727Z,24.42
2022-11-04T19:54:33.016Z,27.10
2022-11-04T19:59:31.302Z,30.30
2022-11-04T20:04:30.932Z,30.08
2022-11-04T20:09:29.106Z,33.35
2022-11-04T20:14:28.223Z,33.45
2022-11-04T20:19:26.603Z,33.00
2022-11-04T20:24:26.154Z,36.17
2022-11-04T20:29:24.433Z,32.10
2022-11-04T20:34:22.585Z,31.17
2022-11-04T20:39:21.960Z,31.65
2022-11-04T20:44:22.098Z,32.33
2022-11-04T20:49:20.567Z,28.27
2022-11-04T20:54:18.935Z,30.48
2022-11-04T20:59:18.422Z,35.25
2022-11-04T21:04:19.443Z,32.65
2022-11-04T21:09:18.564Z,33.17
2022-11-04T21:14:19.509Z,26.40
2022-11-04T21:19:21.953Z,28.33
2022-11-04T21:24:20.151Z,30.60
2022-11-04T21:29:20.508Z,24.63
2022-11-04T21:34:20.360Z,26.73
2022-11-04T21:39:18.689Z,33.03
2022-11-04T21:44:16.937Z,27.55
2022-11-04T21:49:15.168Z,27.45
2022-11-04T21:54:14.775Z,27.75
2022-11-04T21:59:18.125Z,23.73
2022-11-04T22:04:16.742Z,23.70
2022-11-04T22:09:16.665Z,23.30
2022-11-04T22:14:14.814Z,25.63
2022-11-04T22:19:14.509Z,24.40
2022-11-04T22:24:13.250Z,20.85
2022-11-04T22:29:12.847Z,23.27
2022-11-04T22:34:11.311Z,24.55
2022-11-04T22:39:16.021Z,24.05
2022-11-04T22:44:16.580Z,27.05
2022-11-04T22:49:14.954Z,20.17
2022-11-04T22:54:13.225Z,23.17
2022-11-04T22:59:11.573Z,19.50
2022-11-04T23:04:12.384Z,18.77
2022-11-04T23:09:11.280Z,15.75
2022-11-04T23:14:29.328Z,25.02
2022-11-04T23:19:30.967Z,17.48
2022-11-04T23:24:46.524Z,23.30
2022-11-04T23:30:01.974Z,19.25
2022-11-04T23:35:18.984Z,13.70
2022-11-04T23:40:17.342Z,31.02
2022-11-04T23:45:32.875Z,24.00
2022-11-04T23:50:51.239Z,22.00
2022-11-04T23:56:07.604Z,17.63
